createdAt,value
2016-11-25T00:00:52.872Z,99.99
2016-11-25T00:02:04.823Z,99.99
2016-11-25T00:03:16.727Z,99.99
2016-11-25T00:04:28.695Z,99.99
2016-11-25T00:05:41.189Z,99.99
2016-11-25T00:06:54.712Z,99.99
2016-11-25T00:08:07.615Z,99.99
2016-11-25T00:09:20.591Z,99.99
2016-11-25T00:10:34.209Z,99.99
2016-11-25T00:11:47.694Z,99.99
2016-11-25T00:13:00.648Z,99.99
2016-11-25T00:14:13.671Z,99.99
2016-11-25T00:15:26.765Z,99.99
2016-11-25T00:16:39.743Z,99.99
2016-11-25T00:17:52.194Z,99.99
2016-11-25T00:19:05.175Z,99.99
2016-11-25T00:20:18.063Z,99.99
2016-11-25T00:21:31.016Z,99.99
2016-11-25T00:22:44.035Z,99.99
2016-11-25T00:23:57.512Z,99.99
2016-11-25T00:25:10.486Z,99.99
2016-11-25T00:26:23.017Z,99.99
2016-11-25T00:27:36.061Z,99.99
2016-11-25T00:28:49.028Z,99.99
2016-11-25T00:30:01.465Z,99.99
2016-11-25T00:31:13.917Z,99.99
2016-11-25T00:32:26.368Z,99.99
2016-11-25T00:33:38.814Z,99.99
2016-11-25T00:34:52.326Z,99.99
2016-11-25T00:36:05.293Z,99.99
2016-11-25T00:37:18.381Z,99.99
2016-11-25T00:38:30.780Z,99.99
2016-11-25T00:39:44.347Z,99.99
2016-11-25T00:40:57.850Z,99.99
2016-11-25T00:42:10.868Z,99.99
2016-11-25T00:43:23.725Z,99.92
2016-11-25T00:44:37.196Z,99.99
2016-11-25T00:45:50.766Z,99.99
2016-11-25T00:47:03.738Z,99.99
2016-11-25T00:48:16.455Z,99.58
2016-11-25T00:49:29.978Z,99.58
2016-11-25T00:50:43.564Z,99.58
2016-11-25T00:51:54.988Z,99.49
2016-11-25T00:53:07.597Z,99.68
2016-11-25T00:54:20.567Z,99.2
2016-11-25T00:55:33.506Z,99.01
2016-11-25T00:56:46.998Z,98.72
2016-11-25T00:58:00.488Z,99.4
2016-11-25T00:59:13.552Z,99.01
2016-11-25T01:00:26.665Z,99.2
2016-11-25T01:01:39.576Z,99.2
2016-11-25T01:02:51.978Z,98.72
2016-11-25T01:04:04.377Z,98.82
2016-11-25T01:05:17.507Z,98.91
2016-11-25T01:06:30.503Z,98.91
2016-11-25T01:07:43.999Z,98.63
2016-11-25T01:08:57.431Z,98.14
2016-11-25T01:10:10.044Z,97.76
2016-11-25T01:11:22.979Z,98.05
2016-11-25T01:12:35.963Z,97.96
2016-11-25T01:13:49.512Z,97.86
2016-11-25T01:15:01.975Z,97.76
2016-11-25T01:16:14.919Z,97.66
2016-11-25T01:17:27.930Z,97.38
2016-11-25T01:18:41.429Z,96.61
2016-11-25T01:19:54.949Z,96.61
2016-11-25T01:21:07.562Z,96.61
2016-11-25T01:22:21.076Z,96.89
2016-11-25T01:23:33.986Z,97.38
2016-11-25T01:25:18.592Z,97.66
2016-11-25T01:26:31.852Z,96.99
2016-11-25T01:27:45.367Z,97.38
2016-11-25T01:28:57.974Z,97.09
2016-11-25T01:30:11.071Z,96.99
2016-11-25T01:31:24.064Z,97.19
2016-11-25T01:32:37.683Z,96.51
2016-11-25T01:33:50.600Z,96.42
2016-11-25T01:35:04.231Z,96.89
2016-11-25T01:36:16.775Z,97.28
2016-11-25T01:37:29.588Z,97.57
2016-11-25T01:38:43.089Z,98.24
2016-11-25T01:39:55.558Z,98.63
2016-11-25T01:41:40.222Z,99.05
2016-11-25T01:42:53.309Z,99.01
2016-11-25T01:44:05.714Z,99.01
2016-11-25T01:45:18.143Z,99.2
2016-11-25T01:46:31.718Z,99.2
2016-11-25T01:47:44.268Z,99.3
2016-11-25T01:48:57.750Z,99.68
2016-11-25T01:50:10.695Z,99.49
2016-11-25T01:51:24.242Z,99.99
2016-11-25T01:52:37.861Z,99.99
2016-11-25T01:53:50.391Z,99.99
2016-11-25T01:55:03.369Z,99.99
2016-11-25T01:56:16.828Z,99.99
2016-11-25T01:57:29.821Z,99.99
2016-11-25T01:58:42.822Z,99.99
2016-11-25T01:59:55.323Z,99.99
2016-11-25T02:01:08.361Z,99.99
2016-11-25T02:02:21.334Z,99.99
2016-11-25T02:04:06.123Z,99.99
2016-11-25T02:05:19.613Z,99.99
2016-11-25T02:06:32.677Z,99.99
2016-11-25T02:07:45.249Z,99.99
2016-11-25T02:08:59.003Z,99.99
2016-11-25T02:10:12.540Z,99.99
2016-11-25T02:11:26.101Z,99.99
2016-11-25T02:12:38.523Z,99.99
2016-11-25T02:13:50.995Z,99.99
2016-11-25T02:15:03.002Z,99.99
2016-11-25T02:16:15.477Z,99.99
2016-11-25T02:17:28.055Z,99.99
2016-11-25T02:18:40.700Z,99.99
2016-11-25T02:19:53.678Z,99.99
2016-11-25T02:21:05.821Z,99.99
2016-11-25T02:22:18.206Z,99.99
2016-11-25T02:23:30.116Z,99.99
2016-11-25T02:24:42.704Z,99.99
2016-11-25T02:25:56.448Z,99.99
2016-11-25T02:27:08.825Z,99.99
2016-11-25T02:28:20.757Z,99.99
2016-11-25T02:29:34.265Z,99.99
2016-11-25T02:30:47.767Z,99.99
2016-11-25T02:32:00.752Z,99.99
2016-11-25T02:33:13.177Z,99.99
2016-11-25T02:34:26.639Z,99.99
2016-11-25T02:35:39.040Z,99.99
2016-11-25T02:36:52.192Z,99.99
2016-11-25T02:38:05.778Z,99.99
2016-11-25T02:39:18.740Z,99.99
2016-11-25T02:40:31.749Z,99.99
2016-11-25T02:41:44.825Z,99.99
2016-11-25T02:42:57.261Z,99.99
2016-11-25T02:44:10.253Z,99.99
2016-11-25T02:45:23.253Z,99.99
2016-11-25T02:46:36.752Z,99.99
2016-11-25T02:47:49.796Z,99.99
2016-11-25T02:49:02.214Z,99.99
2016-11-25T02:50:15.714Z,99.99
2016-11-25T02:51:29.273Z,99.99
2016-11-25T02:52:42.647Z,99.99
2016-11-25T02:53:55.034Z,99.99
2016-11-25T02:55:38.499Z,99.99
2016-11-25T02:56:50.294Z,99.99
2016-11-25T02:58:03.868Z,99.99
2016-11-25T02:59:16.295Z,99.99
2016-11-25T03:00:29.782Z,99.99
2016-11-25T03:01:43.255Z,99.99
2016-11-25T03:02:56.674Z,99.99
2016-11-25T03:04:09.648Z,99.99
2016-11-25T03:05:23.099Z,99.99
2016-11-25T03:06:34.934Z,99.99
2016-11-25T03:07:48.352Z,99.99
2016-11-25T03:09:00.846Z,99.99
2016-11-25T03:10:13.790Z,99.99
2016-11-25T03:11:26.722Z,99.99
2016-11-25T03:12:40.165Z,99.99
2016-11-25T03:13:52.489Z,99.99
2016-11-25T03:15:05.468Z,99.99
2016-11-25T03:16:49.499Z,99.99
2016-11-25T03:18:03.124Z,99.99
2016-11-25T03:19:16.744Z,99.99
2016-11-25T03:20:29.078Z,99.99
2016-11-25T03:21:41.968Z,99.99
2016-11-25T03:22:54.950Z,99.99
2016-11-25T03:24:08.303Z,99.99
2016-11-25T03:25:20.745Z,99.99
2016-11-25T03:26:33.760Z,99.99
2016-11-25T03:27:47.166Z,99.99
2016-11-25T03:29:00.630Z,99.99
2016-11-25T03:30:13.693Z,99.99
2016-11-25T03:31:26.232Z,99.99
2016-11-25T03:32:39.202Z,99.99
2016-11-25T03:33:51.603Z,99.99
2016-11-25T03:35:04.452Z,99.99
2016-11-25T03:36:16.293Z,99.99
2016-11-25T03:37:29.163Z,99.99
2016-11-25T03:38:42.670Z,99.99
2016-11-25T03:39:55.124Z,99.99
2016-11-25T03:41:07.047Z,99.99
2016-11-25T03:42:20.536Z,99.99
2016-11-25T03:43:33.517Z,99.99
2016-11-25T03:44:46.371Z,99.99
2016-11-25T03:45:58.376Z,99.99
2016-11-25T03:47:10.273Z,99.99
2016-11-25T03:48:22.623Z,99.99
2016-11-25T03:49:35.627Z,99.99
2016-11-25T03:50:47.991Z,99.99
2016-11-25T03:52:01.543Z,99.99
2016-11-25T03:53:13.893Z,99.99
2016-11-25T03:54:26.750Z,99.99
2016-11-25T03:55:39.189Z,99.99
2016-11-25T03:56:52.853Z,99.99
2016-11-25T03:58:06.251Z,99.99
2016-11-25T03:59:18.640Z,99.99
2016-11-25T04:00:31.447Z,99.99
2016-11-25T04:01:44.390Z,99.99
2016-11-25T04:02:58.076Z,99.99
2016-11-25T04:04:11.488Z,99.99
2016-11-25T04:05:24.451Z,99.99
2016-11-25T04:06:37.601Z,99.99
2016-11-25T04:07:50.052Z,99.99
2016-11-25T04:09:03.024Z,99.99
2016-11-25T04:10:16.117Z,99.99
2016-11-25T04:11:28.510Z,99.99
2016-11-25T04:12:40.652Z,99.99
2016-11-25T04:13:54.478Z,99.99
2016-11-25T04:15:07.436Z,99.99
2016-11-25T04:16:20.670Z,99.99
2016-11-25T04:17:34.059Z,99.99
2016-11-25T04:18:47.555Z,99.99
2016-11-25T04:20:00.904Z,99.99
2016-11-25T04:21:14.326Z,99.99
2016-11-25T04:22:27.736Z,99.99
2016-11-25T04:23:40.134Z,99.99
2016-11-25T04:24:53.706Z,99.99
2016-11-25T04:26:06.561Z,99.99
2016-11-25T04:27:18.933Z,99.99
2016-11-25T04:28:32.332Z,99.99
2016-11-25T04:29:44.691Z,99.99
2016-11-25T04:30:57.618Z,99.99
2016-11-25T04:32:09.446Z,99.99
2016-11-25T04:33:22.336Z,99.99
2016-11-25T04:34:35.249Z,99.99
2016-11-25T04:35:47.711Z,99.99
2016-11-25T04:37:00.666Z,99.99
2016-11-25T04:38:14.372Z,99.99
2016-11-25T04:39:27.261Z,99.99
2016-11-25T04:40:39.699Z,99.99
2016-11-25T04:41:53.314Z,99.99
2016-11-25T04:43:06.273Z,99.99
2016-11-25T04:44:19.726Z,99.99
2016-11-25T04:45:32.662Z,99.99
2016-11-25T04:47:16.361Z,99.99
2016-11-25T04:48:28.713Z,99.99
2016-11-25T04:49:41.575Z,99.99
2016-11-25T04:50:54.513Z,99.99
2016-11-25T04:52:07.086Z,99.99
2016-11-25T04:53:20.011Z,99.99
2016-11-25T04:54:32.427Z,99.99
2016-11-25T04:55:45.282Z,99.99
2016-11-25T04:57:29.915Z,99.99
2016-11-25T04:58:42.758Z,99.99
2016-11-25T04:59:55.132Z,99.99
2016-11-25T05:01:08.563Z,99.99
2016-11-25T05:02:22.157Z,99.99
2016-11-25T05:03:35.130Z,99.99
2016-11-25T05:05:19.164Z,99.99
2016-11-25T05:06:31.578Z,99.99
2016-11-25T05:07:44.571Z,99.99
2016-11-25T05:08:57.043Z,99.99
2016-11-25T05:10:10.165Z,99.99
2016-11-25T05:11:23.612Z,99.99
2016-11-25T05:12:36.522Z,99.99
2016-11-25T05:13:50.277Z,99.99
2016-11-25T05:15:03.387Z,99.87
2016-11-25T05:16:15.890Z,99.99
2016-11-25T05:17:28.981Z,99.99
2016-11-25T05:18:42.251Z,99.99
2016-11-25T05:19:55.353Z,99.99
2016-11-25T05:21:08.248Z,99.97
2016-11-25T05:22:21.449Z,99.99
2016-11-25T05:23:33.759Z,99.99
2016-11-25T05:24:46.760Z,99.78
2016-11-25T05:25:59.769Z,99.49
2016-11-25T05:27:13.251Z,99.15
2016-11-25T05:28:26.134Z,99.2
2016-11-25T05:29:39.707Z,99.01
2016-11-25T05:30:52.109Z,99.35
2016-11-25T05:32:05.742Z,98.82
2016-11-25T05:33:18.595Z,99.2
2016-11-25T05:34:30.507Z,98.63
2016-11-25T05:35:43.903Z,98.91
2016-11-25T05:36:57.339Z,98.96
2016-11-25T05:38:10.270Z,99.06
2016-11-25T05:39:23.008Z,98.91
2016-11-25T05:40:36.603Z,99.15
2016-11-25T05:41:47.936Z,98.96
2016-11-25T05:43:00.818Z,98.68
2016-11-25T05:44:13.849Z,98.63
2016-11-25T05:45:26.801Z,98.19
2016-11-25T05:46:39.259Z,98
2016-11-25T05:47:52.266Z,98.19
2016-11-25T05:49:04.641Z,98.19
2016-11-25T05:50:48.347Z,98.77
2016-11-25T05:52:01.444Z,98.77
2016-11-25T05:53:14.420Z,98.96
2016-11-25T05:54:27.790Z,99.06
2016-11-25T05:55:39.681Z,99.06
2016-11-25T05:56:53.150Z,98.86
2016-11-25T05:58:05.995Z,98.68
2016-11-25T05:59:18.363Z,98.77
2016-11-25T06:00:32.011Z,98.96
2016-11-25T06:01:45.054Z,98.96
2016-11-25T06:02:57.940Z,98.77
2016-11-25T06:04:10.807Z,99.06
2016-11-25T06:05:24.253Z,98.19
2016-11-25T06:06:37.246Z,98.29
2016-11-25T06:07:50.249Z,98.77
2016-11-25T06:09:03.621Z,98.68
2016-11-25T06:10:16.461Z,98.1
2016-11-25T06:11:29.505Z,98.19
2016-11-25T06:12:42.570Z,98.1
2016-11-25T06:13:56.087Z,98.1
2016-11-25T06:15:08.970Z,98.29
2016-11-25T06:16:22.002Z,97.91
2016-11-25T06:17:34.397Z,97.62
2016-11-25T06:18:46.356Z,97.62
2016-11-25T06:19:58.711Z,97.24
2016-11-25T06:21:11.109Z,97.14
2016-11-25T06:22:22.999Z,97.04
2016-11-25T06:23:36.575Z,97.14
2016-11-25T06:24:48.933Z,96.75
2016-11-25T06:26:01.824Z,96.66
2016-11-25T06:27:14.718Z,96.75
2016-11-25T06:28:28.131Z,96.94
2016-11-25T06:29:40.512Z,97.14
2016-11-25T06:30:53.945Z,95.89
2016-11-25T06:32:06.839Z,95.98
2016-11-25T06:33:19.759Z,95.98
2016-11-25T06:34:33.306Z,96.37
2016-11-25T06:35:46.209Z,96.32
2016-11-25T06:36:58.604Z,96.08
2016-11-25T06:38:11.514Z,96.37
2016-11-25T06:39:24.925Z,96.42
2016-11-25T06:40:37.295Z,96.08
2016-11-25T06:41:50.169Z,96.42
2016-11-25T06:43:03.676Z,95.84
2016-11-25T06:44:17.063Z,95.75
2016-11-25T06:45:30.525Z,95.55
2016-11-25T06:46:43.417Z,95.55
2016-11-25T06:47:55.801Z,95.75
2016-11-25T06:49:08.188Z,96.03
2016-11-25T06:50:21.123Z,95.79
2016-11-25T06:51:33.502Z,95.98
2016-11-25T06:52:46.412Z,96.03
2016-11-25T06:53:58.775Z,95.98
2016-11-25T06:55:11.132Z,96.03
2016-11-25T06:56:24.111Z,96.03
2016-11-25T06:57:36.982Z,95.89
2016-11-25T06:58:49.939Z,95.84
2016-11-25T07:00:02.853Z,95.45
2016-11-25T07:01:16.379Z,95.17
2016-11-25T07:02:29.374Z,95.26
2016-11-25T07:03:42.820Z,95.26
2016-11-25T07:04:56.347Z,94.88
2016-11-25T07:06:09.250Z,94.98
2016-11-25T07:07:22.250Z,94.83
2016-11-25T07:08:35.213Z,94.98
2016-11-25T07:10:19.747Z,95.26
2016-11-25T07:11:32.611Z,96.03
2016-11-25T07:12:45.117Z,95.84
2016-11-25T07:13:58.705Z,95.75
2016-11-25T07:15:10.777Z,95.98
2016-11-25T07:16:23.106Z,95.7
2016-11-25T07:17:36.499Z,95.6
2016-11-25T07:18:48.346Z,95.98
2016-11-25T07:20:01.800Z,95.55
2016-11-25T07:21:14.678Z,95.65
2016-11-25T07:22:27.555Z,95.98
2016-11-25T07:23:40.628Z,95.65
2016-11-25T07:24:53.501Z,95.65
2016-11-25T07:26:06.478Z,95.75
2016-11-25T07:27:19.472Z,95.55
2016-11-25T07:28:33.001Z,94.93
2016-11-25T07:29:46.598Z,94.83
2016-11-25T07:30:59.563Z,95.55
2016-11-25T07:32:13.015Z,95.5
2016-11-25T07:33:26.071Z,95.5
2016-11-25T07:34:39.130Z,95.36
2016-11-25T07:35:52.636Z,95.7
2016-11-25T07:37:05.607Z,95.84
2016-11-25T07:38:19.165Z,95.45
2016-11-25T07:39:32.633Z,95.6
2016-11-25T07:40:46.162Z,95.79
2016-11-25T07:41:58.669Z,95.89
2016-11-25T07:43:12.205Z,95.7
2016-11-25T07:44:25.724Z,95.79
2016-11-25T07:45:38.827Z,96.37
2016-11-25T07:46:51.867Z,96.27
2016-11-25T07:48:04.917Z,96.08
2016-11-25T07:49:17.836Z,96.08
2016-11-25T07:50:29.706Z,96.27
2016-11-25T07:51:42.180Z,97.24
2016-11-25T07:52:55.163Z,96.85
2016-11-25T07:55:52.536Z,96.75
2016-11-25T07:57:04.981Z,96.47
2016-11-25T07:58:17.955Z,96.94
2016-11-25T07:59:30.527Z,96.56
2016-11-25T08:00:43.982Z,97.04
2016-11-25T08:01:56.412Z,96.94
2016-11-25T08:03:09.926Z,97.14
2016-11-25T08:04:22.877Z,96.94
2016-11-25T08:05:36.401Z,96.56
2016-11-25T08:06:48.924Z,96.47
2016-11-25T08:08:01.926Z,96.56
2016-11-25T08:09:14.884Z,96.47
2016-11-25T08:10:28.379Z,96.8
2016-11-25T08:11:41.826Z,96.47
2016-11-25T08:12:55.286Z,96.47
2016-11-25T08:14:08.193Z,96.94
2016-11-25T08:15:21.167Z,96.32
2016-11-25T08:16:34.647Z,97.04
2016-11-25T08:17:48.253Z,97.19
2016-11-25T08:19:00.735Z,97.09
2016-11-25T08:20:14.125Z,96.94
2016-11-25T08:21:26.687Z,96.75
2016-11-25T08:22:39.731Z,96.7
2016-11-25T08:23:52.689Z,96.8
2016-11-25T08:25:05.683Z,96.61
2016-11-25T08:26:19.248Z,96.9
2016-11-25T08:27:32.224Z,97.09
2016-11-25T08:28:45.780Z,96.7
2016-11-25T08:29:58.749Z,96.37
2016-11-25T08:31:11.165Z,97.04
2016-11-25T08:32:24.204Z,97.28
2016-11-25T08:34:08.935Z,96.61
2016-11-25T08:35:21.897Z,96.32
2016-11-25T08:36:34.975Z,96.42
2016-11-25T08:37:48.470Z,96.22
2016-11-25T08:39:01.965Z,96.03
2016-11-25T08:40:15.408Z,96.51
2016-11-25T08:41:28.368Z,96.03
2016-11-25T08:42:41.849Z,95.45
2016-11-25T08:43:54.878Z,95.65
2016-11-25T08:45:08.526Z,95.75
2016-11-25T08:46:20.976Z,95.84
2016-11-25T08:47:35.871Z,95.75
2016-11-25T08:48:48.936Z,95.36
2016-11-25T08:50:01.909Z,95.75
2016-11-25T08:51:15.366Z,95.55
2016-11-25T08:52:28.303Z,95.75
2016-11-25T08:53:40.759Z,95.94
2016-11-25T08:54:54.592Z,95.75
2016-11-25T08:56:08.271Z,95.26
2016-11-25T08:57:43.210Z,95.45
2016-11-25T08:58:56.190Z,95.36
2016-11-25T09:00:08.637Z,95.45
2016-11-25T09:01:21.741Z,95.94
2016-11-25T09:02:35.850Z,95.45
2016-11-25T09:03:48.807Z,95.65
2016-11-25T09:05:01.272Z,94.98
2016-11-25T09:06:13.712Z,95.07
2016-11-25T09:07:26.881Z,94.78
2016-11-25T09:08:39.838Z,94.98
2016-11-25T09:09:52.846Z,95.26
2016-11-25T09:11:05.261Z,94.88
2016-11-25T09:12:18.897Z,94.78
2016-11-25T09:13:31.919Z,95.07
2016-11-25T09:14:43.255Z,95.36
2016-11-25T09:15:56.236Z,94.98
2016-11-25T09:17:40.677Z,94.59
2016-11-25T09:18:52.614Z,94.21
2016-11-25T09:20:05.122Z,94.49
2016-11-25T09:21:17.678Z,94.68
2016-11-25T09:22:30.700Z,94.21
2016-11-25T09:23:42.053Z,94.25
2016-11-25T09:24:55.077Z,94.59
2016-11-25T09:26:07.672Z,94.11
2016-11-25T09:27:20.271Z,94.15
2016-11-25T09:28:32.795Z,94.06
2016-11-25T09:29:45.397Z,93.68
2016-11-25T09:30:58.717Z,93.58
2016-11-25T09:32:12.154Z,93.77
2016-11-25T09:33:25.694Z,93.29
2016-11-25T09:34:39.265Z,92.52
2016-11-25T09:35:51.668Z,92.71
2016-11-25T09:37:04.127Z,91.85
2016-11-25T09:38:17.134Z,91.89
2016-11-25T09:39:29.734Z,91.75
2016-11-25T09:40:42.741Z,91.31
2016-11-25T09:41:55.777Z,90.55
2016-11-25T09:43:08.777Z,90.73
2016-11-25T09:44:21.314Z,89.97
2016-11-25T09:45:33.743Z,89.53
2016-11-25T09:46:46.166Z,89.24
2016-11-25T09:47:59.110Z,89.15
2016-11-25T09:49:12.115Z,88.67
2016-11-25T09:50:24.124Z,88.28
2016-11-25T09:51:37.722Z,87.99
2016-11-25T09:52:50.208Z,87.32
2016-11-25T09:54:03.828Z,87.26
2016-11-25T09:55:16.855Z,86.3
2016-11-25T09:56:30.416Z,86.49
2016-11-25T09:57:43.346Z,85.63
2016-11-25T09:58:55.305Z,85.91
2016-11-25T10:00:07.204Z,86.11
2016-11-25T10:01:20.845Z,86.21
2016-11-25T10:02:33.304Z,85.91
2016-11-25T10:03:45.249Z,85.34
2016-11-25T10:06:43.516Z,83.45
2016-11-25T10:09:40.820Z,81.12
2016-11-25T10:10:53.847Z,79.97
2016-11-25T10:12:06.429Z,80.39
2016-11-25T10:13:19.920Z,79.24
2016-11-25T10:14:32.927Z,76.86
2016-11-25T10:15:46.444Z,76.61
2016-11-25T10:16:59.956Z,76.32
2016-11-25T10:18:13.437Z,78.41
2016-11-25T10:19:25.896Z,79.33
2016-11-25T10:20:38.866Z,80.06
2016-11-25T10:23:37.238Z,76.28
2016-11-25T10:24:50.179Z,74.04
2016-11-25T10:26:02.587Z,74.04
2016-11-25T10:27:14.462Z,75
2016-11-25T10:28:28.161Z,74.1
2016-11-25T10:29:40.603Z,73.16
2016-11-25T10:30:53.049Z,73.26
2016-11-25T10:32:05.531Z,74.23
2016-11-25T10:33:19.070Z,74.52
2016-11-25T10:34:31.525Z,73.94
2016-11-25T10:35:45.001Z,72.52
2016-11-25T10:36:58.485Z,73.84
2016-11-25T10:38:11.975Z,74.23
2016-11-25T10:39:24.558Z,74.38
2016-11-25T10:40:37.602Z,76.03
2016-11-25T10:41:50.001Z,76.47
2016-11-25T10:43:03.081Z,76.34
2016-11-25T10:44:16.074Z,75.02
2016-11-25T10:45:28.516Z,74.83
2016-11-25T10:46:41.499Z,75.54
2016-11-25T10:47:54.494Z,76.57
2016-11-25T10:49:06.983Z,76.53
2016-11-25T10:50:20.596Z,76.72
2016-11-25T10:51:34.131Z,75.99
2016-11-25T10:52:47.109Z,75.31
2016-11-25T10:53:59.133Z,75.06
2016-11-25T10:55:12.127Z,74.58
2016-11-25T10:56:24.645Z,74
2016-11-25T10:57:37.651Z,73.84
2016-11-25T10:58:49.588Z,73.55
2016-11-25T11:00:03.018Z,74
2016-11-25T11:01:16.686Z,74.1
2016-11-25T11:02:29.153Z,74.68
2016-11-25T11:03:42.159Z,75.7
2016-11-25T11:04:54.612Z,75.41
2016-11-25T11:06:08.147Z,74.73
2016-11-25T11:07:20.640Z,75.51
2016-11-25T11:08:33.624Z,75.7
2016-11-25T11:09:47.203Z,74.44
2016-11-25T11:11:00.206Z,72.74
2016-11-25T11:12:13.258Z,72
2016-11-25T11:13:26.249Z,69.53
2016-11-25T11:14:39.219Z,68.95
2016-11-25T11:15:52.776Z,68.4
2016-11-25T11:17:06.355Z,67.24
2016-11-25T11:18:18.878Z,67.05
2016-11-25T11:19:31.403Z,65.5
2016-11-25T11:20:44.807Z,66.17
2016-11-25T11:21:56.808Z,66.63
2016-11-25T11:23:10.397Z,66.17
2016-11-25T11:24:23.976Z,65.59
2016-11-25T11:25:37.572Z,65.3
2016-11-25T11:26:50.535Z,65.01
2016-11-25T11:28:02.976Z,64.47
2016-11-25T11:29:15.957Z,63.14
2016-11-25T11:30:29.064Z,63.14
2016-11-25T11:31:42.582Z,60.36
2016-11-25T11:32:55.016Z,56.18
2016-11-25T11:34:08.061Z,53.06
2016-11-25T11:35:20.504Z,53.28
2016-11-25T11:36:34.088Z,50.95
2016-11-25T11:37:47.160Z,53.28
2016-11-25T11:38:59.717Z,53.83
2016-11-25T11:40:12.131Z,53.74
2016-11-25T11:41:25.650Z,54.03
2016-11-25T11:42:38.097Z,55.27
2016-11-25T11:43:50.459Z,55.55
2016-11-25T11:45:04.140Z,56.76
2016-11-25T11:46:16.601Z,57.22
2016-11-25T11:47:29.555Z,57.12
2016-11-25T11:48:42.552Z,55.77
2016-11-25T11:49:55.690Z,53.69
2016-11-25T11:51:09.420Z,49.02
2016-11-25T11:52:22.430Z,45.98
2016-11-25T11:53:34.928Z,44.38
2016-11-25T11:54:47.940Z,43.85
2016-11-25T11:55:59.967Z,41.35
2016-11-25T11:57:12.954Z,40.97
2016-11-25T11:58:25.882Z,41.64
2016-11-25T11:59:38.809Z,43.38
2016-11-25T12:00:52.348Z,44.78
2016-11-25T12:02:05.880Z,45.34
2016-11-25T12:03:18.992Z,45.98
2016-11-25T12:04:32.061Z,45.88
2016-11-25T12:05:45.653Z,43.29
2016-11-25T12:06:58.769Z,40.43
2016-11-25T12:08:10.646Z,39.59
2016-11-25T12:09:23.679Z,39.41
2016-11-25T12:10:37.192Z,39.2
2016-11-25T12:11:50.183Z,40.37
2016-11-25T12:14:47.286Z,40.82
2016-11-25T12:16:00.312Z,40.35
2016-11-25T12:17:13.960Z,40.45
2016-11-25T12:18:27.448Z,39.47
2016-11-25T12:19:39.893Z,37.55
2016-11-25T12:20:53.573Z,37.95
2016-11-25T12:22:05.982Z,36.3
2016-11-25T12:23:19.572Z,36.22
2016-11-25T12:24:33.096Z,36.41
2016-11-25T12:25:46.005Z,36.41
2016-11-25T12:26:58.439Z,37.85
2016-11-25T12:28:11.025Z,38.42
2016-11-25T12:29:23.501Z,39.57
2016-11-25T12:30:36.811Z,39.65
2016-11-25T12:31:50.423Z,40.89
2016-11-25T12:33:03.426Z,40.97
2016-11-25T12:34:16.393Z,41.09
2016-11-25T12:37:16.514Z,40.53
2016-11-25T12:38:36.721Z,40.8
2016-11-25T12:39:49.685Z,40.31
2016-11-25T12:41:02.731Z,39.94
2016-11-25T12:42:16.332Z,39.47
2016-11-25T12:43:29.302Z,39.18
2016-11-25T12:44:42.856Z,37.35
2016-11-25T12:45:55.827Z,36.79
2016-11-25T12:47:09.315Z,35.53
2016-11-25T12:48:22.373Z,35.35
2016-11-25T12:49:35.366Z,35.45
2016-11-25T12:50:48.921Z,34.86
2016-11-25T12:52:02.474Z,34.39
2016-11-25T12:53:15.557Z,35.75
2016-11-25T12:54:28.640Z,35.75
2016-11-25T12:55:41.170Z,37.1
2016-11-25T12:56:54.705Z,37.85
2016-11-25T12:58:07.747Z,38.69
2016-11-25T12:59:19.705Z,39.28
2016-11-25T13:00:33.226Z,39.55
2016-11-25T13:01:46.737Z,39.36
2016-11-25T13:03:00.237Z,38.69
2016-11-25T13:04:13.334Z,37.93
2016-11-25T13:05:26.273Z,37.73
2016-11-25T13:06:39.754Z,38.79
2016-11-25T13:07:52.230Z,39.16
2016-11-25T13:09:05.282Z,38.48
2016-11-25T13:10:17.885Z,38.1
2016-11-25T13:11:31.430Z,37.83
2016-11-25T13:12:44.399Z,37.34
2016-11-25T13:13:57.893Z,36.49
2016-11-25T13:15:11.020Z,35.34
2016-11-25T13:16:23.504Z,35.73
2016-11-25T13:17:36.544Z,35.83
2016-11-25T13:18:48.431Z,34.47
2016-11-25T13:20:02.037Z,33.23
2016-11-25T13:21:15.067Z,32.78
2016-11-25T13:22:28.594Z,32.2
2016-11-25T13:23:41.608Z,31.9
2016-11-25T13:24:54.611Z,32.68
2016-11-25T13:26:06.663Z,33.05
2016-11-25T13:27:19.714Z,32.95
2016-11-25T13:28:32.176Z,32.27
2016-11-25T13:29:45.159Z,31.61
2016-11-25T13:30:58.134Z,30.94
2016-11-25T13:32:11.168Z,31.61
2016-11-25T13:33:23.660Z,32.78
2016-11-25T13:34:36.082Z,34.11
2016-11-25T13:35:49.731Z,33.2
2016-11-25T13:39:42.956Z,30.68
2016-11-25T13:40:11.235Z,29.31
2016-11-25T13:40:39.480Z,28.85
2016-11-25T13:41:07.565Z,28.75
2016-11-25T13:41:35.928Z,28.36
2016-11-25T13:42:04.146Z,28.75
2016-11-25T13:42:32.606Z,28.45
2016-11-25T13:43:00.790Z,28.14
2016-11-25T13:43:28.754Z,28.41
2016-11-25T13:43:56.746Z,29.3
2016-11-25T13:44:24.921Z,30.05
2016-11-25T13:44:53.254Z,30.65
2016-11-25T13:45:21.550Z,30.74
2016-11-25T13:45:49.747Z,30.55
2016-11-25T13:46:17.829Z,30.55
2016-11-25T13:46:46.096Z,30.74
2016-11-25T13:47:14.255Z,30.74
2016-11-25T13:47:42.533Z,30.73
2016-11-25T13:48:10.810Z,30.74
2016-11-25T13:48:38.891Z,30.93
2016-11-25T13:49:07.069Z,30.82
2016-11-25T13:49:35.246Z,31.41
2016-11-25T13:50:52.209Z,31.12
2016-11-25T13:51:20.400Z,30.94
2016-11-25T13:51:48.475Z,30.65
2016-11-25T13:52:16.687Z,30.07
2016-11-25T13:52:44.961Z,29.38
2016-11-25T13:53:13.271Z,29.96
2016-11-25T13:53:41.431Z,30.53
2016-11-25T13:54:09.640Z,30.62
2016-11-25T13:54:37.889Z,31.6
2016-11-25T13:55:06.383Z,31.6
2016-11-25T13:55:34.401Z,31.01
2016-11-25T13:56:02.955Z,31.22
2016-11-25T13:56:31.094Z,31.53
2016-11-25T13:56:59.242Z,30.84
2016-11-25T13:57:27.416Z,30.76
2016-11-25T13:57:55.611Z,30.18
2016-11-25T13:58:24.062Z,30.3
2016-11-25T13:58:52.367Z,29.72
2016-11-25T13:59:20.559Z,28.93
2016-11-25T13:59:48.913Z,28.54
2016-11-25T14:00:17.144Z,28.05
2016-11-25T14:00:45.358Z,28.23
2016-11-25T14:01:13.546Z,28.63
2016-11-25T14:01:41.833Z,28.81
2016-11-25T14:02:10.038Z,29.1
2016-11-25T14:02:38.334Z,28.7
2016-11-25T14:03:06.462Z,29.48
2016-11-25T14:03:34.671Z,29.49
2016-11-25T14:04:02.923Z,29.69
2016-11-25T14:04:31.239Z,29.1
2016-11-25T14:04:59.431Z,28.72
2016-11-25T14:05:27.599Z,28.92
2016-11-25T14:05:55.764Z,28.83
2016-11-25T14:06:24.090Z,28.44
2016-11-25T14:06:52.070Z,28.06
2016-11-25T14:07:20.174Z,27.56
2016-11-25T14:07:48.487Z,28.24
2016-11-25T14:08:16.660Z,28.31
2016-11-25T14:08:44.761Z,28.89
2016-11-25T14:09:12.966Z,30.15
2016-11-25T14:09:41.249Z,30.93
2016-11-25T14:10:41.033Z,31.2
2016-11-25T14:11:09.308Z,31.87
2016-11-25T14:11:37.380Z,32.35
2016-11-25T14:12:05.446Z,33.12
2016-11-25T14:12:33.675Z,33.41
2016-11-25T14:13:01.899Z,33.59
2016-11-25T14:13:30.195Z,33.89
2016-11-25T14:13:58.363Z,34.18
2016-11-25T14:14:26.459Z,33.5
2016-11-25T14:14:54.812Z,33.02
2016-11-25T14:15:22.913Z,33.12
2016-11-25T14:15:51.243Z,32.74
2016-11-25T14:16:19.334Z,32.17
2016-11-25T14:16:47.580Z,31.2
2016-11-25T14:17:15.645Z,30.81
2016-11-25T14:17:43.923Z,30.91
2016-11-25T14:18:12.097Z,30.82
2016-11-25T14:18:40.206Z,29.94
2016-11-25T14:19:08.384Z,29.66
2016-11-25T14:19:36.539Z,29.48
2016-11-25T14:20:04.796Z,28.89
2016-11-25T14:20:33.014Z,28.81
2016-11-25T14:21:01.268Z,28.81
2016-11-25T14:21:29.620Z,28.41
2016-11-25T14:21:57.745Z,28.61
2016-11-25T14:22:25.809Z,28.31
2016-11-25T14:22:53.938Z,28.12
2016-11-25T14:23:22.221Z,28.42
2016-11-25T14:23:50.341Z,28.13
2016-11-25T14:24:18.551Z,27.56
2016-11-25T14:24:46.894Z,27.56
2016-11-25T14:25:15.080Z,27.37
2016-11-25T14:25:43.454Z,26.78
2016-11-25T14:26:11.782Z,26.78
2016-11-25T14:26:40.138Z,26.58
2016-11-25T14:27:08.452Z,26.08
2016-11-25T14:28:08.359Z,26.78
2016-11-25T14:28:36.334Z,26.88
2016-11-25T14:29:04.502Z,26.68
2016-11-25T14:29:32.480Z,26.58
2016-11-25T14:30:00.707Z,26.3
2016-11-25T14:30:29.031Z,26.01
2016-11-25T14:30:57.392Z,26.39
2016-11-25T14:31:25.559Z,26.29
2016-11-25T14:31:53.552Z,26.4
2016-11-25T14:32:21.815Z,26.3
2016-11-25T14:32:50.157Z,26.31
2016-11-25T14:33:18.377Z,26.12
2016-11-25T14:33:46.555Z,25.72
2016-11-25T14:34:14.801Z,25.72
2016-11-25T14:34:42.979Z,25.72
2016-11-25T14:35:11.698Z,25.34
2016-11-25T14:35:39.847Z,25.63
2016-11-25T14:36:08.163Z,24.85
2016-11-25T14:36:36.483Z,25.24